createdAt,value
2022-10-11T00:01:18.994Z,10.18
2022-10-11T00:03:45.566Z,10.27
2022-10-11T00:06:12.101Z,10.36
2022-10-11T00:08:38.608Z,10.41
2022-10-11T00:11:07.866Z,10.40
2022-10-11T00:13:34.783Z,10.42
2022-10-11T00:16:01.580Z,10.44
2022-10-11T00:18:28.260Z,10.40
2022-10-11T00:21:07.383Z,10.35
2022-10-11T00:23:34.037Z,10.26
2022-10-11T00:26:02.216Z,10.22
2022-10-11T00:28:29.358Z,10.23
2022-10-11T00:30:56.538Z,10.22
2022-10-11T00:33:23.202Z,10.20
2022-10-11T00:35:49.913Z,10.18
2022-10-11T00:38:17.296Z,10.15
2022-10-11T00:40:45.038Z,10.14
2022-10-11T00:43:23.774Z,10.18
2022-10-11T00:45:56.367Z,10.19
2022-10-11T00:48:27.681Z,10.22
2022-10-11T00:50:57.493Z,10.21
2022-10-11T00:53:24.867Z,10.28
2022-10-11T00:55:55.690Z,10.35
2022-10-11T00:58:23.550Z,10.32
2022-10-11T01:00:50.888Z,10.30
2022-10-11T01:03:20.020Z,10.31
2022-10-11T01:05:47.281Z,10.39
2022-10-11T01:08:13.915Z,10.43
2022-10-11T01:10:40.567Z,10.48
2022-10-11T01:13:25.701Z,10.48
2022-10-11T01:16:07.762Z,10.44
2022-10-11T01:18:49.861Z,10.36
2022-10-11T01:21:53.199Z,10.30
2022-10-11T01:24:31.676Z,10.25
2022-10-11T01:27:20.719Z,10.21
2022-10-11T01:30:03.465Z,10.16
2022-10-11T01:32:38.826Z,10.09
2022-10-11T01:35:17.264Z,10.07
2022-10-11T01:37:50.202Z,10.04
2022-10-11T01:40:27.238Z,10.06
2022-10-11T01:42:55.889Z,10.10
2022-10-11T01:45:22.868Z,10.16
2022-10-11T01:48:01.493Z,10.22
2022-10-11T01:50:34.186Z,10.34
2022-10-11T01:53:11.829Z,10.57
2022-10-11T01:55:51.692Z,10.71
2022-10-11T01:58:40.267Z,10.77
2022-10-11T02:01:23.776Z,10.83
2022-10-11T02:03:57.134Z,10.90
2022-10-11T02:06:43.197Z,10.85
2022-10-11T02:09:27.792Z,10.96
2022-10-11T02:11:59.291Z,11.00
2022-10-11T02:14:30.765Z,10.92
2022-10-11T02:17:10.689Z,11.06
2022-10-11T02:19:48.279Z,11.05
2022-10-11T02:22:35.598Z,11.00
2022-10-11T02:25:05.832Z,10.90
2022-10-11T02:27:37.025Z,10.87
2022-10-11T02:30:07.317Z,10.87
2022-10-11T02:32:38.206Z,10.83
2022-10-11T02:35:05.428Z,10.86
2022-10-11T02:37:36.115Z,10.87
2022-10-11T02:40:40.235Z,10.80
2022-10-11T02:43:18.171Z,10.70
2022-10-11T02:45:50.304Z,10.72
2022-10-11T02:48:17.811Z,10.70
2022-10-11T02:50:44.475Z,10.61
2022-10-11T02:53:10.953Z,10.63
2022-10-11T02:55:37.687Z,10.62
2022-10-11T02:58:04.458Z,10.56
2022-10-11T03:00:31.728Z,10.59
2022-10-11T03:02:58.305Z,10.63
2022-10-11T03:05:24.770Z,10.65
2022-10-11T03:07:51.253Z,10.67
2022-10-11T03:10:17.714Z,10.73
2022-10-11T03:12:44.347Z,10.74
2022-10-11T03:15:10.879Z,10.69
2022-10-11T03:17:37.718Z,10.68
2022-10-11T03:20:05.863Z,10.63
2022-10-11T03:22:32.315Z,10.60
2022-10-11T03:25:03.718Z,10.56
2022-10-11T03:27:31.819Z,10.56
2022-10-11T03:29:58.635Z,10.49
2022-10-11T03:32:25.307Z,10.56
2022-10-11T03:34:51.726Z,10.61
2022-10-11T03:37:19.385Z,10.67
2022-10-11T03:39:45.977Z,10.67
2022-10-11T03:42:13.316Z,10.68
2022-10-11T03:44:41.576Z,10.78
2022-10-11T03:47:08.465Z,10.68
2022-10-11T03:49:36.146Z,10.68
2022-10-11T03:52:05.188Z,10.62
2022-10-11T03:54:31.631Z,10.71
2022-10-11T03:56:58.567Z,10.69
2022-10-11T03:59:25.199Z,10.65
2022-10-11T04:01:51.726Z,10.61
2022-10-11T04:04:18.352Z,10.61
2022-10-11T04:06:44.825Z,10.60
2022-10-11T04:09:11.332Z,10.56
2022-10-11T04:11:37.752Z,10.58
2022-10-11T04:14:04.511Z,10.59
2022-10-11T04:16:30.971Z,10.61
2022-10-11T04:18:57.443Z,10.63
2022-10-11T04:21:23.887Z,10.67
2022-10-11T04:23:50.672Z,10.61
2022-10-11T04:26:17.173Z,10.69
2022-10-11T04:28:43.701Z,10.71
2022-10-11T04:31:10.269Z,10.69
2022-10-11T04:33:36.875Z,10.61
2022-10-11T04:36:03.848Z,10.68
2022-10-11T04:38:30.557Z,10.72
2022-10-11T04:41:06.194Z,10.72
2022-10-11T04:43:32.628Z,10.72
2022-10-11T04:45:59.062Z,10.73
2022-10-11T04:48:25.518Z,10.78
2022-10-11T04:50:51.967Z,10.76
2022-10-11T04:53:18.434Z,10.74
2022-10-11T04:55:44.918Z,10.67
2022-10-11T04:58:11.370Z,10.72
2022-10-11T05:00:37.923Z,10.72
2022-10-11T05:03:04.340Z,10.73
2022-10-11T05:05:30.790Z,10.78
2022-10-11T05:07:57.223Z,10.75
2022-10-11T05:10:23.675Z,10.76
2022-10-11T05:12:50.137Z,10.75
2022-10-11T05:15:16.795Z,10.74
2022-10-11T05:17:43.224Z,10.76
2022-10-11T05:20:10.011Z,10.79
2022-10-11T05:22:36.465Z,10.76
2022-10-11T05:25:03.084Z,10.70
2022-10-11T05:27:29.537Z,10.74
2022-10-11T05:29:56.016Z,10.75
2022-10-11T05:32:25.573Z,10.81
2022-10-11T05:34:54.125Z,10.87
2022-10-11T05:37:20.594Z,10.88
2022-10-11T05:39:47.249Z,10.98
2022-10-11T05:42:13.810Z,10.97
2022-10-11T05:44:40.252Z,10.98
2022-10-11T05:47:06.711Z,10.96
2022-10-11T05:49:33.201Z,10.86
2022-10-11T05:51:59.684Z,11.00
2022-10-11T05:54:31.045Z,10.94
2022-10-11T05:56:57.489Z,10.98
2022-10-11T05:59:23.910Z,11.07
2022-10-11T06:01:50.451Z,11.06
2022-10-11T06:04:18.979Z,11.04
2022-10-11T06:06:45.556Z,11.01
2022-10-11T06:09:12.709Z,11.05
2022-10-11T06:11:41.329Z,11.00
2022-10-11T06:14:09.233Z,11.04
2022-10-11T06:16:35.757Z,11.08
2022-10-11T06:19:02.476Z,11.05
2022-10-11T06:21:29.160Z,11.15
2022-10-11T06:24:01.160Z,11.16
2022-10-11T06:26:28.892Z,11.18
2022-10-11T06:28:55.413Z,11.24
2022-10-11T06:31:22.143Z,11.22
2022-10-11T06:33:48.695Z,11.33
2022-10-11T06:36:16.866Z,11.34
2022-10-11T06:38:45.351Z,11.37
2022-10-11T06:41:15.977Z,11.39
2022-10-11T06:43:42.542Z,11.45
2022-10-11T06:46:09.259Z,11.52
2022-10-11T06:48:40.313Z,11.59
2022-10-11T06:51:06.837Z,11.63
2022-10-11T06:53:33.484Z,11.70
2022-10-11T06:56:08.519Z,11.76
2022-10-11T06:58:35.876Z,11.80
2022-10-11T07:01:04.945Z,11.87
2022-10-11T07:03:32.060Z,11.99
2022-10-11T07:06:13.760Z,12.08
2022-10-11T07:08:40.688Z,12.16
2022-10-11T07:11:16.628Z,12.27
2022-10-11T07:13:43.660Z,12.33
2022-10-11T07:16:12.281Z,12.46
2022-10-11T07:18:39.826Z,12.60
2022-10-11T07:21:10.449Z,12.75
2022-10-11T07:23:37.161Z,12.85
2022-10-11T07:26:05.085Z,12.88
2022-10-11T07:28:31.858Z,12.92
2022-10-11T07:30:59.086Z,12.96
2022-10-11T07:33:25.609Z,12.92
2022-10-11T07:35:57.662Z,13.03
2022-10-11T07:38:24.107Z,13.08
2022-10-11T07:40:50.562Z,13.33
2022-10-11T07:43:17.098Z,13.49
2022-10-11T07:45:45.464Z,13.62
2022-10-11T07:48:11.927Z,13.67
2022-10-11T07:50:38.545Z,13.74
2022-10-11T07:53:05.009Z,13.87
2022-10-11T07:55:35.523Z,14.18
2022-10-11T07:58:02.005Z,14.39
2022-10-11T08:00:28.740Z,15.12
2022-10-11T08:02:55.186Z,15.45
2022-10-11T08:05:21.707Z,15.39
2022-10-11T08:07:48.819Z,15.77
2022-10-11T08:10:15.549Z,15.78
2022-10-11T08:12:41.987Z,15.57
2022-10-11T08:15:08.770Z,15.61
2022-10-11T08:17:35.362Z,16.93
2022-10-11T08:20:01.934Z,18.21
2022-10-11T08:22:28.563Z,18.10
2022-10-11T08:24:56.374Z,18.74
2022-10-11T08:27:22.937Z,19.12
2022-10-11T08:29:49.617Z,18.54
2022-10-11T08:32:16.208Z,18.73
2022-10-11T08:34:42.694Z,19.43
2022-10-11T08:37:09.373Z,18.28
2022-10-11T08:39:35.930Z,17.87
2022-10-11T08:42:06.860Z,17.35
2022-10-11T08:45:09.565Z,17.00
2022-10-11T08:47:40.238Z,16.48
2022-10-11T08:50:15.156Z,16.29
2022-10-11T08:52:47.518Z,16.12
2022-10-11T08:55:31.779Z,15.88
2022-10-11T08:57:59.320Z,15.88
2022-10-11T09:00:31.042Z,16.10
2022-10-11T09:03:08.837Z,16.98
2022-10-11T09:06:11.922Z,18.04
2022-10-11T09:09:12.429Z,18.86
2022-10-11T09:12:09.379Z,18.90
2022-10-11T09:14:39.106Z,18.15
2022-10-11T09:18:03.889Z,19.47
2022-10-11T09:20:43.015Z,19.52
2022-10-11T09:23:31.433Z,18.72
2022-10-11T09:26:14.428Z,17.99
2022-10-11T09:29:06.105Z,18.59
2022-10-11T09:31:33.004Z,17.61
2022-10-11T09:34:11.506Z,16.65
2022-10-11T09:37:05.655Z,16.10
2022-10-11T09:39:37.801Z,16.03
2022-10-11T09:42:06.947Z,15.91
2022-10-11T09:44:51.380Z,15.87
2022-10-11T09:47:22.018Z,15.89
2022-10-11T09:49:57.735Z,15.82
2022-10-11T09:52:25.703Z,16.04
2022-10-11T09:54:56.462Z,16.29
2022-10-11T09:57:25.986Z,16.40
2022-10-11T09:59:59.425Z,16.55
2022-10-11T10:02:27.570Z,16.35
2022-10-11T10:04:57.047Z,16.09
2022-10-11T10:07:23.963Z,16.03
2022-10-11T10:09:51.037Z,15.90
2022-10-11T10:12:24.635Z,15.85
2022-10-11T10:15:30.069Z,15.96
2022-10-11T10:18:25.587Z,16.03
2022-10-11T10:23:44.378Z,17.18
2022-10-11T10:26:17.078Z,17.06
2022-10-11T10:29:32.541Z,17.35
2022-10-11T10:32:15.155Z,17.29
2022-10-11T10:35:03.008Z,17.08
2022-10-11T10:37:35.600Z,17.39
2022-10-11T10:40:09.376Z,17.78
2022-10-11T10:42:40.410Z,17.85
2022-10-11T10:45:18.632Z,17.75
2022-10-11T10:48:08.201Z,17.43
2022-10-11T10:50:50.081Z,17.27
2022-10-11T10:53:35.444Z,17.38
2022-10-11T10:56:15.491Z,17.43
2022-10-11T10:59:19.072Z,17.60
2022-10-11T11:02:35.437Z,17.15
2022-10-11T11:05:29.160Z,16.99
2022-10-11T11:08:07.827Z,16.79
2022-10-11T11:10:41.377Z,16.76
2022-10-11T11:13:37.391Z,16.77
2022-10-11T11:16:23.977Z,16.91
2022-10-11T11:19:22.926Z,16.97
2022-10-11T11:22:10.812Z,17.11
2022-10-11T11:24:52.980Z,17.36
2022-10-11T11:27:41.557Z,17.07
2022-10-11T11:30:22.218Z,16.94
2022-10-11T11:33:16.235Z,16.68
2022-10-11T11:35:47.306Z,16.63
2022-10-11T11:38:27.143Z,16.42
2022-10-11T11:40:58.111Z,16.22
2022-10-11T11:43:36.406Z,16.16
2022-10-11T11:46:09.662Z,16.13
2022-10-11T11:48:37.248Z,16.07
2022-10-11T11:51:09.481Z,16.20
2022-10-11T11:54:02.223Z,16.30
2022-10-11T11:57:05.708Z,16.34
2022-10-11T11:59:37.868Z,16.47
2022-10-11T12:02:41.645Z,16.49
2022-10-11T12:05:10.492Z,16.76
2022-10-11T12:10:54.936Z,17.06
2022-10-11T12:13:36.943Z,17.37
2022-10-11T12:16:06.681Z,17.33
2022-10-11T12:18:38.144Z,17.21
2022-10-11T12:21:18.892Z,17.26
2022-10-11T12:23:53.590Z,17.11
2022-10-11T12:26:29.203Z,17.07
2022-10-11T12:29:04.150Z,17.12
2022-10-11T12:31:36.682Z,17.26
2022-10-11T12:34:32.522Z,17.16
2022-10-11T12:37:02.158Z,16.95
2022-10-11T12:39:46.585Z,16.87
2022-10-11T12:42:25.405Z,16.98
2022-10-11T12:45:10.769Z,17.10
2022-10-11T12:47:49.806Z,16.89
2022-10-11T12:50:22.563Z,16.74
2022-10-11T12:53:10.887Z,16.69
2022-10-11T12:56:01.978Z,16.72
2022-10-11T12:58:41.345Z,16.63
2022-10-11T13:01:17.519Z,16.55
2022-10-11T13:04:11.466Z,16.42
2022-10-11T13:06:47.194Z,16.15
2022-10-11T13:09:40.013Z,16.03
2022-10-11T13:12:15.812Z,15.91
2022-10-11T13:15:12.795Z,15.81
2022-10-11T13:17:40.536Z,15.80
2022-10-11T13:20:17.191Z,15.76
2022-10-11T13:22:47.252Z,15.85
2022-10-11T13:25:21.908Z,16.02
2022-10-11T13:27:51.597Z,16.00
2022-10-11T13:30:24.213Z,16.02
2022-10-11T13:32:52.283Z,16.03
2022-10-11T13:35:36.235Z,16.14
2022-10-11T13:38:04.509Z,16.24
2022-10-11T13:40:31.870Z,16.31
2022-10-11T13:42:58.711Z,16.40
2022-10-11T13:45:27.361Z,16.53
2022-10-11T13:47:55.392Z,16.54
2022-10-11T13:50:35.178Z,16.30
2022-10-11T13:53:23.080Z,16.23
2022-10-11T13:55:54.246Z,16.14
2022-10-11T13:58:27.256Z,16.05
2022-10-11T14:01:03.787Z,16.05
2022-10-11T14:03:44.486Z,15.89
2022-10-11T14:06:11.314Z,15.95
2022-10-11T14:08:44.330Z,15.96
2022-10-11T14:11:12.666Z,15.82
2022-10-11T14:13:47.705Z,15.97
2022-10-11T14:16:30.214Z,16.04
2022-10-11T14:18:59.380Z,16.15
2022-10-11T14:21:35.140Z,16.15
2022-10-11T14:24:08.155Z,16.16
2022-10-11T14:26:38.168Z,15.99
2022-10-11T14:29:24.878Z,15.89
2022-10-11T14:32:01.089Z,15.71
2022-10-11T14:34:28.757Z,15.70
2022-10-11T14:36:55.390Z,15.89
2022-10-11T14:39:25.442Z,15.79
2022-10-11T14:41:52.571Z,15.85
2022-10-11T14:44:21.009Z,15.88
2022-10-11T14:46:49.175Z,15.85
2022-10-11T14:49:21.818Z,15.83
2022-10-11T14:51:50.052Z,15.74
2022-10-11T14:54:19.293Z,15.67
2022-10-11T14:56:46.413Z,15.68
2022-10-11T14:59:15.334Z,15.62
2022-10-11T15:01:42.156Z,15.51
2022-10-11T15:04:09.053Z,15.49
2022-10-11T15:06:38.743Z,15.39
2022-10-11T15:09:05.814Z,15.37
2022-10-11T15:11:32.886Z,15.35
2022-10-11T15:13:59.514Z,15.21
2022-10-11T15:16:26.946Z,15.28
2022-10-11T15:18:53.460Z,15.22
2022-10-11T15:21:21.942Z,15.20
2022-10-11T15:23:49.234Z,15.18
2022-10-11T15:26:21.836Z,15.16
2022-10-11T15:28:49.137Z,15.11
2022-10-11T15:31:16.204Z,14.96
2022-10-11T15:33:42.718Z,14.93
2022-10-11T15:36:13.604Z,14.83
2022-10-11T15:38:40.645Z,14.78
2022-10-11T15:41:08.434Z,14.74
2022-10-11T15:43:34.896Z,14.65
2022-10-11T15:46:02.342Z,14.61
2022-10-11T15:48:29.091Z,14.60
2022-10-11T15:50:55.804Z,14.57
2022-10-11T15:53:28.766Z,14.52
2022-10-11T15:55:57.327Z,14.40
2022-10-11T15:58:29.985Z,14.41
2022-10-11T16:01:00.287Z,14.39
2022-10-11T16:03:28.972Z,14.31
2022-10-11T16:05:58.876Z,14.16
2022-10-11T16:08:27.960Z,14.22
2022-10-11T16:10:54.932Z,14.17
2022-10-11T16:13:21.432Z,14.12
2022-10-11T16:15:48.987Z,14.02
2022-10-11T16:18:17.362Z,13.97
2022-10-11T16:20:46.120Z,13.86
2022-10-11T16:23:13.204Z,13.75
2022-10-11T16:25:40.177Z,13.69
2022-10-11T16:28:08.042Z,13.69
2022-10-11T16:30:39.304Z,13.66
2022-10-11T16:33:05.829Z,13.58
2022-10-11T16:35:32.779Z,13.59
2022-10-11T16:38:00.704Z,13.59
2022-10-11T16:40:29.792Z,13.54
2022-10-11T16:42:56.270Z,13.56
2022-10-11T16:45:22.855Z,13.49
2022-10-11T16:47:49.433Z,13.42
2022-10-11T16:50:15.978Z,13.35
2022-10-11T16:52:42.572Z,13.27
2022-10-11T16:55:09.348Z,13.17
2022-10-11T16:57:37.744Z,13.17
2022-10-11T17:00:08.858Z,13.17
2022-10-11T17:02:35.909Z,13.14
2022-10-11T17:05:02.512Z,13.08
2022-10-11T17:07:29.072Z,13.08
2022-10-11T17:09:55.668Z,13.09
2022-10-11T17:12:23.538Z,13.08
2022-10-11T17:14:50.530Z,13.08
2022-10-11T17:17:18.353Z,13.11
2022-10-11T17:19:45.697Z,13.11
2022-10-11T17:22:15.215Z,13.08
2022-10-11T17:24:41.821Z,13.09
2022-10-11T17:27:08.592Z,13.10
2022-10-11T17:29:35.458Z,13.12
2022-10-11T17:32:02.034Z,13.09
2022-10-11T17:34:29.403Z,13.12
2022-10-11T17:36:55.912Z,13.15
2022-10-11T17:39:23.747Z,13.15
2022-10-11T17:41:50.524Z,13.13
2022-10-11T17:44:18.452Z,13.04
2022-10-11T17:46:45.681Z,12.88
2022-10-11T17:49:12.999Z,12.81
2022-10-11T17:51:40.526Z,12.56
2022-10-11T17:54:12.282Z,12.69
2022-10-11T17:56:39.426Z,12.62
2022-10-11T17:59:06.492Z,12.53
2022-10-11T18:01:33.178Z,12.42
2022-10-11T18:04:03.039Z,12.40
2022-10-11T18:06:32.848Z,12.31
2022-10-11T18:09:00.944Z,12.28
2022-10-11T18:11:27.895Z,12.23
2022-10-11T18:13:54.469Z,12.12
2022-10-11T18:16:24.580Z,12.12
2022-10-11T18:18:51.129Z,12.12
2022-10-11T18:21:18.801Z,12.07
2022-10-11T18:23:46.135Z,12.10
2022-10-11T18:26:18.441Z,12.07
2022-10-11T18:28:45.782Z,12.08
2022-10-11T18:31:16.175Z,12.04
2022-10-11T18:33:45.525Z,12.12
2022-10-11T18:36:16.741Z,12.14
2022-10-11T18:38:46.504Z,12.17
2022-10-11T18:41:15.722Z,12.20
2022-10-11T18:43:42.443Z,12.22
2022-10-11T18:46:13.851Z,12.29
2022-10-11T18:48:42.179Z,12.27
2022-10-11T18:51:18.582Z,12.28
2022-10-11T18:53:45.736Z,12.22
2022-10-11T18:56:14.015Z,12.19
2022-10-11T18:58:41.648Z,12.21
2022-10-11T19:01:15.959Z,12.21
2022-10-11T19:03:43.906Z,12.22
2022-10-11T19:06:17.023Z,12.23
2022-10-11T19:08:48.588Z,12.19
2022-10-11T19:11:16.232Z,12.21
2022-10-11T19:13:43.462Z,12.23
2022-10-11T19:16:13.222Z,12.24
2022-10-11T19:18:44.053Z,12.15
2022-10-11T19:21:13.102Z,12.18
2022-10-11T19:23:42.319Z,12.17
2022-10-11T19:26:14.302Z,12.17
2022-10-11T19:28:41.330Z,12.17
2022-10-11T19:31:10.036Z,12.16
2022-10-11T19:33:36.776Z,12.14
2022-10-11T19:36:05.334Z,12.13
2022-10-11T19:38:34.032Z,12.13
2022-10-11T19:41:01.395Z,12.12
2022-10-11T19:43:28.206Z,12.10
2022-10-11T19:46:05.605Z,12.15
2022-10-11T19:48:32.657Z,12.12
2022-10-11T19:51:03.776Z,12.08
2022-10-11T19:53:30.296Z,12.12
2022-10-11T19:56:03.509Z,12.10
2022-10-11T19:58:30.461Z,12.12
2022-10-11T20:01:10.117Z,12.13
2022-10-11T20:03:37.721Z,12.14
2022-10-11T20:06:07.576Z,12.14
2022-10-11T20:08:35.063Z,12.12
2022-10-11T20:11:03.855Z,12.10
2022-10-11T20:13:34.725Z,12.10
2022-10-11T20:16:05.913Z,12.11
2022-10-11T20:18:32.449Z,12.09
2022-10-11T20:21:04.475Z,12.08
2022-10-11T20:23:33.717Z,12.09
2022-10-11T20:26:06.013Z,12.09
2022-10-11T20:28:33.977Z,12.07
2022-10-11T20:31:02.255Z,12.04
2022-10-11T20:33:30.310Z,12.05
2022-10-11T20:36:05.213Z,12.08
2022-10-11T20:38:33.707Z,12.03
2022-10-11T20:41:04.165Z,11.95
2022-10-11T20:43:30.661Z,11.88
2022-10-11T20:46:11.399Z,11.89
2022-10-11T20:48:40.539Z,11.85
2022-10-11T20:51:09.420Z,11.81
2022-10-11T20:53:37.381Z,11.75
2022-10-11T20:56:05.448Z,11.79
2022-10-11T20:58:31.935Z,11.77
2022-10-11T21:00:58.445Z,11.69
2022-10-11T21:03:24.972Z,11.57
2022-10-11T21:06:00.924Z,11.59
2022-10-11T21:08:30.518Z,11.56
2022-10-11T21:10:57.073Z,11.51
2022-10-11T21:13:23.507Z,11.43
2022-10-11T21:15:49.944Z,11.40
2022-10-11T21:18:16.921Z,11.31
2022-10-11T21:20:43.918Z,11.28
2022-10-11T21:23:10.977Z,11.24
2022-10-11T21:25:37.874Z,11.21
2022-10-11T21:28:04.817Z,11.13
2022-10-11T21:30:32.291Z,11.16
2022-10-11T21:32:58.839Z,11.26
2022-10-11T21:35:29.843Z,11.27
2022-10-11T21:37:58.361Z,11.22
2022-10-11T21:40:25.398Z,11.14
2022-10-11T21:42:51.858Z,11.14
2022-10-11T21:45:18.382Z,11.03
2022-10-11T21:47:46.274Z,11.00
2022-10-11T21:50:12.834Z,10.94
2022-10-11T21:52:39.295Z,10.97
2022-10-11T21:55:05.861Z,10.90
2022-10-11T21:57:32.312Z,10.88
2022-10-11T21:59:58.792Z,10.87
2022-10-11T22:02:25.292Z,10.83
2022-10-11T22:04:51.786Z,10.84
2022-10-11T22:07:18.247Z,10.83
2022-10-11T22:09:44.696Z,10.78
2022-10-11T22:12:11.129Z,11.02
2022-10-11T22:14:37.610Z,10.94
2022-10-11T22:17:04.050Z,10.86
2022-10-11T22:19:30.551Z,10.80
2022-10-11T22:21:56.979Z,10.76
2022-10-11T22:24:23.456Z,10.76
2022-10-11T22:26:49.886Z,10.76
2022-10-11T22:29:16.365Z,10.74
2022-10-11T22:31:42.819Z,10.72
2022-10-11T22:34:09.259Z,10.77
2022-10-11T22:36:35.953Z,10.77
2022-10-11T22:39:07.653Z,10.79
2022-10-11T22:41:35.826Z,10.82
2022-10-11T22:44:03.060Z,10.84
2022-10-11T22:46:29.591Z,10.78
2022-10-11T22:48:56.115Z,10.73
2022-10-11T22:51:22.925Z,10.65
2022-10-11T22:53:49.424Z,10.67
2022-10-11T22:56:15.896Z,10.55
2022-10-11T22:58:42.368Z,10.60
2022-10-11T23:01:14.922Z,10.66
2022-10-11T23:03:41.819Z,10.67
2022-10-11T23:06:08.723Z,10.62
2022-10-11T23:08:35.191Z,10.65
2022-10-11T23:11:07.936Z,10.65
2022-10-11T23:13:35.026Z,10.58
2022-10-11T23:16:06.548Z,10.49
2022-10-11T23:18:32.990Z,10.51
2022-10-11T23:21:00.883Z,10.52
2022-10-11T23:23:27.370Z,10.49
2022-10-11T23:26:01.700Z,10.45
2022-10-11T23:28:28.242Z,10.38
2022-10-11T23:30:54.685Z,10.36
2022-10-11T23:33:21.351Z,10.29
2022-10-11T23:35:47.827Z,10.29
2022-10-11T23:38:14.273Z,10.24
2022-10-11T23:40:42.006Z,10.23
2022-10-11T23:43:08.464Z,10.25
2022-10-11T23:45:34.927Z,10.27
2022-10-11T23:48:01.371Z,10.22
2022-10-11T23:50:27.815Z,10.24
2022-10-11T23:52:54.317Z,10.26
2022-10-11T23:55:21.332Z,10.22
2022-10-11T23:57:47.778Z,10.25
